Time;durP1;ratioP1;P1;durP2;ratioP2;P2;SDS_P1;SDS_P2;PMS_P1;PMS_P2;Temp;Humidity;BMP_temperature;BMP_pressure;BME280_temperature;BME280_humidity;BME280_pressure;Samples;Min_cycle;Max_cycle;Signal;HPM_P1;HPM_P2
2021/06/14 00:01:11;;;;;;;6.57;4.47;;;;;;;28.81;36.84;101896.84;5074391;28;20390;-76
2021/06/14 00:03:37;;;;;;;11.95;5.80;;;;;;;28.78;36.90;101894.84;5074298;28;20024;-75
2021/06/14 00:06:03;;;;;;;7.53;4.65;;;;;;;28.81;36.85;101888.41;5074276;28;20021;-74
2021/06/14 00:08:29;;;;;;;5.75;4.57;;;;;;;28.77;36.97;101892.44;5074052;28;20035;-75
2021/06/14 00:10:57;;;;;;;7.05;4.20;;;;;;;28.71;37.01;101892.06;5073811;28;20511;-76
2021/06/14 00:13:24;;;;;;;9.25;5.10;;;;;;;28.72;36.98;101885.25;5074142;28;20059;-76
2021/06/14 00:15:51;;;;;;;7.30;5.55;;;;;;;28.66;37.07;101884.88;5074014;28;20029;-75
2021/06/14 00:18:17;;;;;;;7.90;5.25;;;;;;;28.61;37.27;101885.31;5073994;28;20051;-75
2021/06/14 00:20:52;;;;;;;6.68;4.53;;;;;;;28.56;37.45;101891.34;5073109;28;20025;-75
2021/06/14 00:23:20;;;;;;;7.38;4.97;;;;;;;28.26;38.05;101889.03;5073921;28;20020;-76
2021/06/14 00:25:45;;;;;;;11.23;5.65;;;;;;;28.11;38.47;101896.75;5073804;28;20033;-75
2021/06/14 00:28:11;;;;;;;10.40;5.13;;;;;;;28.38;37.91;101887.81;5073799;28;20032;-75
2021/06/14 00:30:43;;;;;;;7.03;4.47;;;;;;;28.08;38.58;101886.28;5073652;28;20113;-79
2021/06/14 00:33:10;;;;;;;8.40;5.30;;;;;;;28.16;38.34;101878.66;5073688;28;20483;-75
2021/06/14 00:35:36;;;;;;;5.93;4.80;;;;;;;28.13;38.46;101874.66;5073621;28;20059;-75
2021/06/14 00:38:02;;;;;;;7.10;4.50;;;;;;;28.22;38.15;101871.41;5073599;28;20467;-75
2021/06/14 00:40:28;;;;;;;8.18;5.40;;;;;;;28.30;37.95;101881.44;5073508;28;20031;-75
2021/06/14 00:42:54;;;;;;;7.88;5.07;;;;;;;28.04;38.57;101881.91;5073555;28;20030;-75
2021/06/14 00:45:24;;;;;;;5.03;4.32;;;;;;;27.92;38.93;101877.50;5073399;28;20471;-74
2021/06/14 00:47:50;;;;;;;;;;;;;;;27.38;39.99;101860.72;5073840;28;20028;-75
2021/06/14 00:50:21;;;;;;;7.30;4.72;;;;;;;27.43;39.80;101858.69;5073290;28;19916;-75
2021/06/14 00:52:48;;;;;;;5.57;4.65;;;;;;;27.29;40.36;101867.94;5073220;28;20048;-78
2021/06/14 00:55:17;;;;;;;7.32;4.78;;;;;;;27.37;40.20;101863.94;5073281;28;20051;-79
2021/06/14 00:57:43;;;;;;;6.53;5.40;;;;;;;27.64;39.50;101853.88;5073220;28;20085;-74
2021/06/14 01:00:09;;;;;;;9.13;5.47;;;;;;;27.46;40.02;101861.53;5073120;28;20120;-75
2021/06/14 01:02:35;;;;;;;6.25;5.05;;;;;;;27.58;39.77;101854.69;5073107;28;20028;-76
2021/06/14 01:05:04;;;;;;;5.70;4.68;;;;;;;27.32;40.15;101858.72;5073021;28;20021;-75
2021/06/14 01:07:29;;;;;;;6.10;5.07;;;;;;;27.61;39.79;101856.69;5072989;28;20471;-75
2021/06/14 01:09:55;;;;;;;7.15;5.03;;;;;;;27.67;39.60;101868.31;5072917;28;20043;-75
2021/06/14 01:12:26;;;;;;;7.80;5.32;;;;;;;27.46;40.08;101858.72;5055003;28;20071;-75
2021/06/14 01:15:00;;;;;;;7.72;5.68;;;;;;;27.81;39.45;101859.88;5072935;28;20025;-78
2021/06/14 01:17:34;;;;;;;8.50;5.15;;;;;;;27.61;39.87;101865.13;5055019;28;20060;-75
2021/06/14 01:20:37;;;;;;;6.75;5.75;;;;;;;27.56;39.91;101855.09;5072955;28;20016;-75
2021/06/14 01:23:17;;;;;;;6.57;5.30;;;;;;;27.73;39.78;101861.09;5072809;28;20024;-75
2021/06/14 01:25:52;;;;;;;12.73;5.75;;;;;;;28.06;38.80;101869.06;5072679;28;20024;-75
2021/06/14 01:28:20;;;;;;;7.38;4.93;;;;;;;27.94;39.18;101869.47;5054803;28;20038;-75
2021/06/14 01:30:47;;;;;;;6.32;5.50;;;;;;;28.03;38.88;101860.63;5072131;28;20029;-76
2021/06/14 01:33:14;;;;;;;9.30;6.75;;;;;;;28.09;38.78;101859.78;5054711;28;20024;-76
2021/06/14 01:35:47;;;;;;;7.82;5.68;;;;;;;28.02;39.08;101867.44;5072670;28;20032;-75
2021/06/14 01:38:13;;;;;;;8.52;6.40;;;;;;;27.99;39.17;101865.47;5072677;28;20092;-75
2021/06/14 01:40:40;;;;;;;8.68;6.43;;;;;;;27.63;39.82;101874.72;5072654;28;20017;-75
2021/06/14 01:43:11;;;;;;;10.75;5.30;;;;;;;27.45;40.28;101873.16;5072531;28;20035;-75
2021/06/14 01:45:42;;;;;;;7.80;5.88;;;;;;;27.63;39.67;101879.53;5072622;28;20050;-79
2021/06/14 01:48:08;;;;;;;6.05;4.20;;;;;;;27.55;39.96;101881.56;5054162;28;20029;-75
2021/06/14 01:50:35;;;;;;;5.97;4.10;;;;;;;27.08;40.54;101896.78;5072235;28;20390;-75
2021/06/14 01:53:02;;;;;;;5.05;3.92;;;;;;;27.30;40.10;101895.59;5072497;28;20028;-78
2021/06/14 01:55:28;;;;;;;5.38;3.50;;;;;;;27.44;39.79;101900.41;5054112;28;20026;-75
2021/06/14 01:57:56;;;;;;;5.97;3.83;;;;;;;27.32;39.76;101898.81;5054668;28;20035;-75
2021/06/14 02:00:23;;;;;;;2.58;2.03;;;;;;;26.88;40.60;101907.53;5072371;28;20086;-75
2021/06/14 02:02:51;;;;;;;5.05;2.10;;;;;;;27.19;39.88;101902.41;5054423;28;20386;-74
2021/06/14 02:05:27;;;;;;;4.03;1.80;;;;;;;26.97;40.00;101907.13;5072327;28;20067;-75
2021/06/14 02:07:54;;;;;;;5.72;2.00;;;;;;;26.85;40.25;101908.34;5054438;28;20047;-74
2021/06/14 02:10:22;;;;;;;3.83;1.67;;;;;;;26.75;40.56;101918.34;5072174;28;20427;-75
2021/06/14 02:12:48;;;;;;;2.58;1.58;;;;;;;26.59;40.68;101920.66;5072273;28;20033;-75
2021/06/14 02:15:16;;;;;;;3.53;2.03;;;;;;;26.84;40.20;101917.94;5072246;28;20032;-75
2021/06/14 02:17:43;;;;;;;2.83;1.45;;;;;;;26.87;39.93;101914.34;5072265;28;20028;-75
2021/06/14 02:20:10;;;;;;;2.42;1.30;;;;;;;26.99;39.64;101902.75;5054147;28;20067;-78
2021/06/14 02:22:36;;;;;;;2.10;1.40;;;;;;;27.03;39.66;101908.34;5054172;28;20025;-75
2021/06/14 02:25:07;;;;;;;2.25;1.20;;;;;;;26.76;40.03;101905.13;5072058;28;20025;-75
2021/06/14 02:27:33;;;;;;;1.88;1.33;;;;;;;26.78;40.05;101899.91;5053269;28;20052;-75
2021/06/14 02:29:59;;;;;;;2.58;1.30;;;;;;;26.92;39.80;101902.75;5054086;28;20115;-75
2021/06/14 02:32:26;;;;;;;2.72;1.33;;;;;;;26.74;40.12;101915.91;5072080;28;20017;-75
2021/06/14 02:34:53;;;;;;;1.85;1.38;;;;;;;26.42;40.90;101908.19;5071898;28;20033;-76
2021/06/14 02:37:20;;;;;;;3.05;1.50;;;;;;;26.49;40.54;101918.63;5070620;28;20028;-74
2021/06/14 02:39:50;;;;;;;3.60;1.70;;;;;;;25.86;42.07;101926.25;5053988;28;20020;-75
2021/06/14 02:42:17;;;;;;;1.77;0.90;;;;;;;26.26;40.64;101918.88;5054101;28;20028;-75
2021/06/14 02:44:44;;;;;;;4.43;0.90;;;;;;;26.30;40.42;101922.53;5075796;28;20058;-75
2021/06/14 02:47:12;;;;;;;0.60;0.57;;;;;;;26.42;40.07;101941.81;5075799;28;20024;-75
2021/06/14 02:49:40;;;;;;;0.75;0.45;;;;;;;26.28;39.96;101941.69;5057555;28;20074;-75
2021/06/14 02:52:09;;;;;;;0.88;0.65;;;;;;;26.25;39.86;101943.28;5075026;28;20105;-75
2021/06/14 02:54:43;;;;;;;0.47;0.30;;;;;;;26.26;39.55;101955.31;5075624;28;20111;-76
2021/06/14 02:57:12;;;;;;;0.85;0.32;;;;;;;26.08;39.76;101965.59;5075605;28;20104;-75
2021/06/14 02:59:45;;;;;;;1.38;0.43;;;;;;;26.17;39.75;101966.06;5075129;28;20032;-75
2021/06/14 03:02:11;;;;;;;0.93;0.35;;;;;;;26.26;39.25;101961.72;5075497;28;20044;-75
2021/06/14 03:04:37;;;;;;;0.40;0.40;;;;;;;26.29;38.91;101960.91;5057134;28;20056;-79
2021/06/14 03:07:04;;;;;;;0.20;0.20;;;;;;;26.32;38.85;101953.75;5074928;28;20033;-75
2021/06/14 03:09:30;;;;;;;0.65;0.65;;;;;;;26.29;39.17;101965.72;5075290;28;20387;-75
2021/06/14 03:11:57;;;;;;;0.45;0.25;;;;;;;26.28;38.98;101964.91;5057290;28;20017;-75
2021/06/14 03:14:23;;;;;;;1.40;0.50;;;;;;;26.07;39.27;101964.81;5075221;28;20038;-76
2021/06/14 03:16:49;;;;;;;1.95;0.40;;;;;;;26.13;38.72;101965.22;5075201;28;20378;-75
2021/06/14 03:19:19;;;;;;;0.90;0.30;;;;;;;26.10;38.82;101966.00;5075179;28;20040;-76
2021/06/14 03:21:45;;;;;;;2.90;0.57;;;;;;;26.10;38.67;101960.41;5075102;28;20051;-79
2021/06/14 03:24:14;;;;;;;1.75;0.40;;;;;;;26.23;38.49;101956.91;5075014;28;20051;-75
2021/06/14 03:26:42;;;;;;;0.82;0.40;;;;;;;26.27;38.38;101956.91;5057055;28;20020;-75
2021/06/14 03:29:10;;;;;;;0.32;0.32;;;;;;;26.27;38.02;101956.91;5074980;28;20028;-75
2021/06/14 03:31:37;;;;;;;0.55;0.30;;;;;;;26.27;37.89;101956.91;5074863;28;20470;-76
2021/06/14 03:34:05;;;;;;;1.45;0.50;;;;;;;26.28;38.05;101953.72;5074858;28;20043;-75
2021/06/14 03:36:31;;;;;;;0.90;0.40;;;;;;;26.40;37.82;101954.63;5074907;28;20409;-75
2021/06/14 03:38:58;;;;;;;0.30;0.30;;;;;;;26.26;37.78;101960.91;5074769;28;20020;-76
2021/06/14 03:41:25;;;;;;;0.50;0.35;;;;;;;26.08;38.03;101960.00;5074811;28;20074;-75
2021/06/14 03:43:51;;;;;;;1.95;0.60;;;;;;;26.11;38.09;101959.22;5074823;28;20040;-74
2021/06/14 03:46:18;;;;;;;0.60;0.40;;;;;;;26.16;37.52;101956.06;5074672;28;20020;-80
2021/06/14 03:48:45;;;;;;;2.85;0.50;;;;;;;25.90;38.22;101966.25;5074620;28;20029;-75
2021/06/14 03:51:11;;;;;;;0.75;0.30;;;;;;;26.03;37.66;101955.56;5058717;28;20040;-79
2021/06/14 03:53:39;;;;;;;1.20;0.40;;;;;;;26.03;37.57;101951.97;5074264;28;20033;-74
2021/06/14 03:56:08;;;;;;;1.00;0.52;;;;;;;25.66;37.82;101964.03;5073741;28;20494;-74
2021/06/14 03:58:37;;;;;;;1.27;0.38;;;;;;;25.64;38.00;101960.84;5074460;28;20107;-75
2021/06/14 04:01:04;;;;;;;1.15;0.32;;;;;;;25.61;37.88;101958.81;5074510;28;20032;-75
2021/06/14 04:03:30;;;;;;;1.70;0.55;;;;;;;25.43;37.79;101965.03;5074398;28;20024;-74
2021/06/14 04:06:00;;;;;;;1.42;0.50;;;;;;;25.38;37.83;101964.59;5074328;28;20028;-74
2021/06/14 04:08:26;;;;;;;2.10;0.57;;;;;;;25.31;37.55;101961.72;5074300;28;20475;-75
2021/06/14 04:10:53;;;;;;;2.20;0.50;;;;;;;25.45;37.07;101965.47;5074094;28;20025;-74
2021/06/14 04:13:19;;;;;;;0.38;0.35;;;;;;;25.51;36.85;101965.13;5074203;28;20029;-76
2021/06/14 04:15:45;;;;;;;2.15;0.20;;;;;;;25.45;37.00;101964.66;5074174;28;20086;-78
2021/06/14 04:18:10;;;;;;;2.40;0.43;;;;;;;25.41;36.92;101961.84;5074056;28;20028;-74
2021/06/14 04:20:37;;;;;;;1.55;0.32;;;;;;;25.41;36.96;101961.84;5061902;28;20027;-75
2021/06/14 04:23:03;;;;;;;3.60;0.80;;;;;;;25.43;37.14;101967.84;5053882;28;20056;-75
2021/06/14 04:25:29;;;;;;;3.53;0.52;;;;;;;25.44;36.96;101977.84;5053934;28;20468;-75
2021/06/14 04:27:55;;;;;;;0.63;0.20;;;;;;;25.33;37.24;101982.53;5053926;28;20025;-76
2021/06/14 04:30:21;;;;;;;0.68;0.45;;;;;;;25.35;37.00;101988.56;5053779;28;20025;-75
2021/06/14 04:32:48;;;;;;;0.28;0.28;;;;;;;25.18;36.93;101981.59;5053883;28;20036;-74
2021/06/14 04:35:14;;;;;;;6.30;0.70;;;;;;;25.27;37.10;101989.66;5053789;28;20039;-75
2021/06/14 04:37:39;;;;;;;3.08;0.75;;;;;;;25.30;36.69;101983.28;5053736;28;20021;-75
2021/06/14 04:40:07;;;;;;;3.13;1.00;;;;;;;25.27;36.60;101986.88;5053651;28;20029;-76
2021/06/14 04:42:33;;;;;;;1.33;0.60;;;;;;;25.11;36.97;101987.09;5053329;28;20047;-74
2021/06/14 04:44:59;;;;;;;2.15;0.60;;;;;;;25.12;36.72;101993.50;5053640;28;20383;-75
2021/06/14 04:47:24;;;;;;;2.00;1.27;;;;;;;24.81;37.16;101989.13;5051380;28;20029;-73
2021/06/14 04:49:50;;;;;;;2.30;0.85;;;;;;;24.98;36.35;101993.31;5051687;28;20036;-74
2021/06/14 04:52:16;;;;;;;3.38;0.75;;;;;;;24.98;36.50;101993.31;5052796;28;20491;-74
2021/06/14 04:54:42;;;;;;;3.63;0.70;;;;;;;24.90;36.31;101992.41;5053030;28;20036;-78
2021/06/14 04:57:08;;;;;;;3.10;1.38;;;;;;;24.81;36.33;102000.31;5053307;28;20040;-73
2021/06/14 04:59:34;;;;;;;2.90;0.85;;;;;;;25.02;35.96;102006.16;5053245;28;20036;-73
2021/06/14 05:02:00;;;;;;;2.85;0.77;;;;;;;25.03;35.84;102006.97;5053131;28;20395;-73
2021/06/14 05:04:26;;;;;;;9.93;1.95;;;;;;;25.09;36.11;102019.41;5053124;28;20079;-74
2021/06/14 05:06:51;;;;;;;7.90;3.58;;;;;;;25.11;35.89;102020.66;5052756;28;20033;-74
2021/06/14 05:09:17;;;;;;;6.97;1.17;;;;;;;25.15;36.01;102020.69;5035175;28;20505;-73
2021/06/14 05:11:43;;;;;;;7.72;1.35;;;;;;;25.14;35.94;102019.09;5053005;28;20025;-74
2021/06/14 05:14:08;;;;;;;11.18;1.60;;;;;;;25.23;35.58;102015.97;5034651;28;20120;-75
2021/06/14 05:16:34;;;;;;;4.65;1.35;;;;;;;25.17;35.66;102029.53;5052485;28;20033;-75
2021/06/14 05:19:00;;;;;;;6.63;1.45;;;;;;;25.14;35.48;102025.47;5052884;28;20391;-75
2021/06/14 05:21:25;;;;;;;16.17;3.08;;;;;;;25.22;35.92;102028.38;5052978;28;20116;-75
2021/06/14 05:23:51;;;;;;;13.35;3.25;;;;;;;25.41;35.47;102045.78;5052500;28;20035;-74
2021/06/14 05:26:17;;;;;;;3.05;1.00;;;;;;;25.40;35.52;102049.75;5052824;28;20032;-74
2021/06/14 05:28:43;;;;;;;3.70;1.15;;;;;;;25.45;35.79;102046.59;5052783;28;20025;-75
2021/06/14 05:31:10;;;;;;;11.13;2.25;;;;;;;25.46;35.56;102053.81;5034710;28;20124;-74
2021/06/14 05:33:36;;;;;;;16.52;3.58;;;;;;;25.44;35.59;102058.97;5052745;28;20029;-75
2021/06/14 05:36:02;;;;;;;10.57;2.22;;;;;;;25.53;35.37;102064.28;5034800;28;20059;-75
2021/06/14 05:38:27;;;;;;;20.80;3.30;;;;;;;25.56;35.59;102059.91;5052708;28;20029;-74
2021/06/14 05:40:53;;;;;;;7.97;2.03;;;;;;;25.54;35.65;102071.47;5052190;28;20483;-74
2021/06/14 05:43:19;;;;;;;6.75;1.60;;;;;;;25.49;35.94;102065.44;5034632;28;20063;-75
2021/06/14 05:45:44;;;;;;;8.07;1.63;;;;;;;25.51;35.74;102072.25;5052390;28;20391;-79
2021/06/14 05:48:10;;;;;;;5.20;1.67;;;;;;;25.55;35.67;102069.50;5052547;28;20033;-74
2021/06/14 05:50:36;;;;;;;3.13;0.90;;;;;;;24.98;36.15;102069.59;5052372;28;20082;-74
2021/06/14 05:53:02;;;;;;;11.15;2.25;;;;;;;25.46;35.31;102081.78;5052212;28;20411;-75
2021/06/14 05:55:28;;;;;;;13.63;2.30;;;;;;;25.20;35.63;102083.88;5052343;28;20029;-74
2021/06/14 05:57:53;;;;;;;4.80;1.20;;;;;;;25.22;35.66;102081.50;5052412;28;20024;-73
2021/06/14 06:00:19;;;;;;;3.60;0.95;;;;;;;25.15;35.85;102085.00;5052325;28;20025;-73
2021/06/14 06:02:45;;;;;;;14.27;1.88;;;;;;;25.44;35.01;102086.97;5034247;28;20162;-74
2021/06/14 06:05:12;;;;;;;12.30;2.05;;;;;;;25.43;35.05;102096.56;5052165;28;20033;-73
2021/06/14 06:07:37;;;;;;;7.55;2.20;;;;;;;25.44;35.48;102100.97;5034397;28;20029;-74
2021/06/14 06:10:08;;;;;;;7.45;2.65;;;;;;;25.11;35.91;102095.38;5052147;28;20027;-77
2021/06/14 06:12:34;;;;;;;18.02;3.13;;;;;;;25.35;35.42;102102.44;5061623;28;20382;-73
2021/06/14 06:15:01;;;;;;;4.95;1.42;;;;;;;25.54;35.01;102110.66;5070420;28;20103;-75
2021/06/14 06:17:28;;;;;;;16.20;3.08;;;;;;;25.59;35.28;102101.91;5071962;28;20028;-72
2021/06/14 06:19:54;;;;;;;6.75;1.70;;;;;;;25.56;35.17;102099.91;5076000;28;20035;-75
2021/06/14 06:22:19;;;;;;;17.13;3.92;;;;;;;25.45;35.21;102104.56;5076098;28;20028;-75
2021/06/14 06:24:45;;;;;;;6.30;2.00;;;;;;;25.15;35.38;102101.78;5076126;28;20025;-73
2021/06/14 06:27:10;;;;;;;8.85;2.15;;;;;;;25.31;34.89;102098.78;5076073;28;20021;-72
2021/06/14 06:29:36;;;;;;;14.07;3.90;;;;;;;25.55;34.64;102106.69;5076026;28;20078;-76
2021/06/14 06:32:02;;;;;;;15.25;3.08;;;;;;;25.55;34.56;102106.69;5075591;28;20039;-76
2021/06/14 06:34:27;;;;;;;15.02;3.00;;;;;;;25.54;34.16;102109.84;5075764;28;20030;-75
2021/06/14 06:36:53;;;;;;;11.80;3.08;;;;;;;25.55;34.64;102119.88;5058044;28;20401;-75
2021/06/14 06:39:18;;;;;;;10.20;2.70;;;;;;;25.39;34.89;102123.69;5057927;28;20420;-72
2021/06/14 06:41:44;;;;;;;8.05;2.20;;;;;;;25.51;34.07;102133.00;5075676;28;20506;-71
2021/06/14 06:44:10;;;;;;;7.72;2.30;;;;;;;25.59;33.69;102129.09;5057429;28;20039;-72
2021/06/14 06:46:37;;;;;;;8.68;2.15;;;;;;;25.46;33.51;102120.97;5074882;28;22266;-72
2021/06/14 06:49:03;;;;;;;11.65;2.83;;;;;;;25.46;33.98;102125.75;5057725;28;20028;-71
2021/06/14 06:51:28;;;;;;;14.32;4.07;;;;;;;25.40;33.47;102130.91;5075301;28;20509;-73
2021/06/14 06:54:11;;;;;;;10.20;3.13;;;;;;;25.65;33.66;102130.38;5075529;28;20379;-76
2021/06/14 06:56:41;;;;;;;8.30;2.75;;;;;;;25.53;33.61;102127.84;5056580;28;20119;-74
2021/06/14 06:59:07;;;;;;;7.80;2.85;;;;;;;25.47;33.87;102132.97;5073904;28;20025;-73
2021/06/14 07:01:33;;;;;;;10.40;2.45;;;;;;;25.72;33.40;102144.47;5069507;28;20398;-73
2021/06/14 07:03:58;;;;;;;12.85;3.45;;;;;;;25.63;33.86;102147.56;5072035;28;20031;-75
2021/06/14 07:06:24;;;;;;;17.75;3.47;;;;;;;25.80;33.31;102146.16;5074002;28;20387;-74
2021/06/14 07:08:49;;;;;;;14.07;2.40;;;;;;;25.68;33.63;102154.78;5055494;28;20032;-74
2021/06/14 07:11:15;;;;;;;12.57;3.00;;;;;;;25.73;33.59;102143.28;5071134;28;20039;-77
2021/06/14 07:13:40;;;;;;;8.80;2.53;;;;;;;25.57;33.70;102148.28;5074025;28;20029;-75
2021/06/14 07:16:06;;;;;;;13.85;3.10;;;;;;;25.79;33.35;102138.97;5075150;28;20025;-75
2021/06/14 07:18:31;;;;;;;16.45;3.72;;;;;;;25.45;33.35;102141.72;5075172;28;20028;-75
2021/06/14 07:20:59;;;;;;;15.15;3.53;;;;;;;25.40;33.59;102128.09;5073588;28;20470;-74
2021/06/14 07:23:25;;;;;;;11.07;2.90;;;;;;;26.16;32.32;102144.53;5058400;28;20020;-74
2021/06/14 07:25:51;;;;;;;13.93;3.30;;;;;;;25.81;32.76;102144.97;5056522;28;20032;-74
2021/06/14 07:28:16;;;;;;;21.27;3.85;;;;;;;25.96;32.51;102149.53;5058051;28;20045;-74
2021/06/14 07:30:42;;;;;;;10.52;3.00;;;;;;;25.90;31.99;102144.66;5057546;28;20044;-74
2021/06/14 07:33:08;;;;;;;17.65;3.15;;;;;;;25.95;31.76;102153.53;5063434;28;20029;-75
2021/06/14 07:35:37;;;;;;;19.80;4.13;;;;;;;26.25;31.79;102150.59;5072470;28;20079;-74
2021/06/14 07:38:04;;;;;;;16.20;3.28;;;;;;;25.99;32.26;102136.75;5073048;28;20032;-74
2021/06/14 07:40:31;;;;;;;9.07;2.47;;;;;;;25.69;32.77;102139.59;5054943;28;20407;-74
2021/06/14 07:42:56;;;;;;;8.05;3.13;;;;;;;25.66;32.88;102145.97;5072905;28;20024;-74
2021/06/14 07:45:24;;;;;;;22.33;3.83;;;;;;;26.13;32.08;102134.06;5073361;28;20383;-75
2021/06/14 07:47:53;;;;;;;13.25;2.95;;;;;;;25.82;32.21;102124.19;5056807;28;20028;-76
2021/06/14 07:50:20;;;;;;;17.55;4.22;;;;;;;25.96;31.70;102124.31;5055055;28;20048;-74
2021/06/14 07:52:45;;;;;;;16.58;4.13;;;;;;;25.83;31.79;102117.38;5056189;28;20055;-75
2021/06/14 07:55:14;;;;;;;8.95;3.17;;;;;;;26.24;31.46;102121.00;5060678;28;20503;-75
2021/06/14 07:57:40;;;;;;;10.87;2.93;;;;;;;26.33;31.22;102129.06;5057212;28;20497;-75
2021/06/14 08:00:09;;;;;;;10.18;2.65;;;;;;;26.51;30.75;102123.59;5056832;28;20029;-75
2021/06/14 08:02:35;;;;;;;18.58;3.60;;;;;;;26.63;31.30;102134.53;5074313;28;20020;-75
2021/06/14 08:05:04;;;;;;;6.72;2.25;;;;;;;26.52;30.85;102128.03;5056072;28;20028;-76
2021/06/14 08:07:30;;;;;;;16.17;3.58;;;;;;;26.35;30.71;102115.47;5071420;28;20509;-76
2021/06/14 08:10:00;;;;;;;13.23;3.22;;;;;;;26.50;30.38;102120.00;5074258;28;20028;-79
2021/06/14 08:12:26;;;;;;;12.48;2.83;;;;;;;26.81;30.05;102109.38;5074100;28;20032;-74
2021/06/14 08:14:52;;;;;;;6.97;2.47;;;;;;;27.09;29.69;102103.16;5073867;28;20025;-77
2021/06/14 08:17:18;;;;;;;14.70;2.65;;;;;;;27.01;29.66;102113.50;5073946;28;20423;-75
2021/06/14 08:19:53;;;;;;;9.98;3.40;;;;;;;27.00;29.37;102103.50;5074015;28;20086;-75
2021/06/14 08:25:03;;;;;;;11.85;3.35;;;;;;;26.95;29.31;102112.28;5074210;28;20059;-75
2021/06/14 08:27:30;;;;;;;9.23;3.00;;;;;;;27.18;28.93;102117.63;5073773;28;20032;-75
2021/06/14 08:29:55;;;;;;;19.42;3.58;;;;;;;27.29;28.84;102112.88;5073806;28;20404;-75
2021/06/14 08:32:21;;;;;;;17.02;2.90;;;;;;;27.72;28.58;102115.03;5073754;28;20025;-75
2021/06/14 08:34:46;;;;;;;18.92;3.25;;;;;;;27.62;28.74;102113.78;5073741;28;20042;-74
2021/06/14 08:37:12;;;;;;;10.07;2.53;;;;;;;27.62;28.65;102108.16;5071952;28;20480;-75
2021/06/14 08:39:38;;;;;;;24.65;4.53;;;;;;;27.87;28.75;102109.03;5055619;28;20028;-75
2021/06/14 08:42:03;;;;;;;10.07;2.58;;;;;;;27.99;28.24;102104.22;5072689;28;20387;-76
2021/06/14 08:44:29;;;;;;;11.32;2.53;;;;;;;28.01;28.02;102104.63;5073227;28;20604;-76
2021/06/14 08:46:57;;;;;;;23.15;3.85;;;;;;;27.96;27.98;102102.22;5073470;28;20043;-76
2021/06/14 08:49:25;;;;;;;10.35;2.70;;;;;;;28.11;28.08;102124.31;5073356;28;20395;-75
2021/06/14 08:51:51;;;;;;;10.85;2.80;;;;;;;27.54;27.98;102112.94;5073180;28;20048;-75
2021/06/14 08:54:18;;;;;;;7.80;2.47;;;;;;;27.70;27.68;102111.81;5073294;28;20044;-75
2021/06/14 08:56:44;;;;;;;9.82;2.80;;;;;;;27.83;27.85;102113.84;5073350;28;20033;-75
2021/06/14 08:59:11;;;;;;;26.73;3.33;;;;;;;27.93;28.10;102110.25;5072821;28;20086;-75
2021/06/14 09:01:36;;;;;;;13.10;4.05;;;;;;;27.35;28.22;102116.09;5073137;28;20028;-75
2021/06/14 09:04:02;;;;;;;8.20;2.38;;;;;;;27.71;27.77;102107.78;5073208;28;20051;-78
2021/06/14 09:06:27;;;;;;;9.40;2.90;;;;;;;28.02;27.38;102112.66;5071527;28;20398;-75
2021/06/14 09:09:11;;;;;;;11.65;3.42;;;;;;;28.30;26.78;102111.88;5073037;28;20035;-75
2021/06/14 09:11:46;;;;;;;10.45;2.80;;;;;;;28.39;27.19;102105.84;5072909;28;20047;-80
2021/06/14 09:14:20;;;;;;;9.63;2.60;;;;;;;28.51;26.48;102111.06;5072672;28;20486;-74
2021/06/14 09:16:47;;;;;;;9.57;2.65;;;;;;;28.72;26.53;102102.59;5055066;28;20382;-74
2021/06/14 09:19:33;;;;;;;6.65;2.35;;;;;;;28.67;26.35;102125.50;5072880;28;20470;-75
2021/06/14 09:22:12;;;;;;;11.25;2.45;;;;;;;28.55;26.00;102116.69;5055015;28;20029;-76
2021/06/14 09:24:39;;;;;;;8.27;2.65;;;;;;;28.49;26.64;102121.94;5072840;28;20032;-75
2021/06/14 09:27:05;;;;;;;27.05;3.53;;;;;;;28.47;25.84;102124.31;5072707;28;20085;-75
2021/06/14 09:29:30;;;;;;;7.00;2.05;;;;;;;28.81;25.37;102126.69;5072622;28;20413;-75
2021/06/14 09:32:03;;;;;;;7.88;2.78;;;;;;;29.25;24.96;102129.00;5072666;28;20021;-80
2021/06/14 09:34:38;;;;;;;8.48;2.20;;;;;;;29.27;25.34;102130.16;5072694;28;20059;-75
2021/06/14 09:37:07;;;;;;;8.55;2.80;;;;;;;29.45;25.00;102120.81;5071116;28;20098;-75
2021/06/14 09:39:46;;;;;;;13.50;3.13;;;;;;;29.40;25.07;102124.09;5072360;28;20387;-75
2021/06/14 09:42:27;;;;;;;8.57;2.65;;;;;;;29.39;24.97;102125.28;5072263;28;20039;-75
2021/06/14 09:45:02;;;;;;;7.43;2.28;;;;;;;29.28;25.25;102134.59;5072542;28;20025;-74
2021/06/14 09:47:29;;;;;;;16.85;3.15;;;;;;;29.62;25.23;102134.03;5072684;28;20039;-75
2021/06/14 09:49:59;;;;;;;13.48;3.25;;;;;;;29.70;24.98;102129.16;5054535;28;20483;-77
2021/06/14 09:52:25;;;;;;;12.57;3.22;;;;;;;29.51;24.80;102138.94;5072437;28;20414;-75
2021/06/14 09:54:52;;;;;;;8.93;2.92;;;;;;;29.61;24.69;102135.25;5071600;28;20029;-75
2021/06/14 09:57:28;;;;;;;9.38;2.17;;;;;;;29.92;23.84;102124.19;5072530;28;20028;-77
2021/06/14 10:00:09;;;;;;;16.38;3.72;;;;;;;29.71;24.27;102125.94;5072564;28;20028;-75
2021/06/14 10:02:35;;;;;;;7.70;2.30;;;;;;;30.38;23.75;102133.13;5072668;28;20056;-75
2021/06/14 10:05:12;;;;;;;8.48;2.33;;;;;;;30.27;24.10;102129.56;5054372;28;20450;-75
2021/06/14 10:07:47;;;;;;;11.98;3.13;;;;;;;30.04;24.19;102146.25;5053517;28;20029;-75
2021/06/14 10:10:25;;;;;;;10.40;2.58;;;;;;;29.98;23.53;102136.63;5072304;28;20029;-75
2021/06/14 10:12:56;;;;;;;11.15;3.80;;;;;;;30.17;23.20;102138.94;5072400;28;20103;-75
2021/06/14 10:15:37;;;;;;;11.00;2.80;;;;;;;29.29;23.80;102150.25;5072376;28;20048;-79
2021/06/14 10:18:05;;;;;;;10.98;3.30;;;;;;;29.34;24.36;102151.06;5072378;28;20043;-75
2021/06/14 10:20:31;;;;;;;10.77;3.65;;;;;;;29.90;24.04;102141.50;5072281;28;20047;-75
2021/06/14 10:23:00;;;;;;;14.13;3.03;;;;;;;30.02;23.50;102145.88;5072227;28;20025;-75
2021/06/14 10:25:26;;;;;;;9.43;2.55;;;;;;;29.94;23.52;102147.13;5071985;28;20036;-74
2021/06/14 10:27:53;;;;;;;6.72;2.65;;;;;;;30.04;23.68;102151.88;5072214;28;20052;-74
2021/06/14 10:30:20;;;;;;;9.52;2.67;;;;;;;30.07;23.90;102163.13;5072041;28;20032;-78
2021/06/14 10:32:47;;;;;;;9.25;2.65;;;;;;;30.22;23.87;102163.84;5054116;28;20387;-74
2021/06/14 10:35:15;;;;;;;14.98;3.10;;;;;;;30.22;23.91;102155.38;5071714;28;20033;-75
2021/06/14 10:37:51;;;;;;;8.45;2.65;;;;;;;30.40;23.72;102152.44;5053080;28;20052;-75
2021/06/14 10:40:21;;;;;;;8.90;2.58;;;;;;;30.58;23.53;102164.34;5053686;28;20060;-74
2021/06/14 10:42:47;;;;;;;11.48;2.90;;;;;;;30.37;23.18;102164.53;5070233;28;20399;-75
2021/06/14 10:45:15;;;;;;;13.13;2.80;;;;;;;30.39;23.30;102162.91;5070181;28;20423;-74
2021/06/14 10:47:44;;;;;;;13.50;3.25;;;;;;;30.33;23.36;102146.84;5070203;28;20024;-75
2021/06/14 10:50:12;;;;;;;8.55;2.70;;;;;;;30.38;23.27;102152.84;5069989;28;20469;-75
2021/06/14 10:52:46;;;;;;;8.32;2.53;;;;;;;29.92;23.69;102161.63;5054289;28;20041;-75
2021/06/14 10:55:33;;;;;;;9.05;2.42;;;;;;;29.64;23.82;102159.78;5054612;28;20111;-75
2021/06/14 10:58:00;;;;;;;7.97;3.20;;;;;;;29.72;24.12;102166.19;5054520;28;20032;-75
2021/06/14 11:00:35;;;;;;;8.93;2.15;;;;;;;29.43;23.45;102163.47;5046759;28;20031;-76
2021/06/14 11:03:06;;;;;;;9.75;2.13;;;;;;;29.26;23.25;102181.25;5067900;28;20051;-80
2021/06/14 11:05:35;;;;;;;12.13;2.72;;;;;;;29.33;22.86;102178.41;5075268;28;20040;-75
2021/06/14 11:08:15;;;;;;;7.70;2.00;;;;;;;28.36;24.00;102176.94;5075020;28;20033;-80
2021/06/14 11:10:42;;;;;;;8.43;2.55;;;;;;;29.10;23.12;102170.44;5075486;28;20432;-75
2021/06/14 11:13:10;;;;;;;10.82;3.72;;;;;;;29.02;23.35;102160.44;5075408;28;20044;-75
2021/06/14 11:15:36;;;;;;;7.30;2.20;;;;;;;29.15;23.40;102170.00;5075406;28;20482;-77
2021/06/14 11:18:07;;;;;;;9.45;2.42;;;;;;;29.56;22.71;102161.84;5075300;28;20035;-76
2021/06/14 11:20:35;;;;;;;8.88;2.47;;;;;;;29.46;23.01;102173.91;5075406;28;20031;-75
2021/06/14 11:23:01;;;;;;;10.05;2.10;;;;;;;29.26;23.25;102172.81;5057044;28;20024;-74
2021/06/14 11:25:33;;;;;;;11.88;3.25;;;;;;;29.64;22.87;102178.72;5075234;28;20478;-75
2021/06/14 11:28:03;;;;;;;5.85;2.33;;;;;;;29.77;23.11;102174.97;5075168;28;20025;-75